Time;durP1;ratioP1;P1;durP2;ratioP2;P2;SDS_P1;SDS_P2;PMS_P1;PMS_P2;Temp;Humidity;BMP_temperature;BMP_pressure;BME280_temperature;BME280_humidity;BME280_pressure;Samples;Min_cycle;Max_cycle;Signal;HPM_P1;HPM_P2
2022/06/28 00:02:20;;;;;;;4.87;2.10;;;;;;;;;;6191007;23;20206;-82
2022/06/28 00:04:49;;;;;;;7.43;2.57;;;;;;;;;;6191099;23;20194;-82
2022/06/28 00:07:17;;;;;;;7.93;2.70;;;;;;;;;;6190632;23;20178;-82
2022/06/28 00:09:46;;;;;;;11.17;2.77;;;;;;;;;;6217426;23;20169;-82
2022/06/28 00:12:15;;;;;;;1.90;1.27;;;;;;;;;;6190614;23;20204;-82
2022/06/28 00:17:31;;;;;;;5.93;2.43;;;;;;;;;;6190975;23;20177;-82
2022/06/28 00:19:59;;;;;;;0.50;0.50;;;;;;;;;;6191221;23;20215;-82
2022/06/28 00:22:28;;;;;;;5.00;1.40;;;;;;;;;;6217359;23;20283;-82
2022/06/28 00:24:56;;;;;;;5.53;2.33;;;;;;;;;;6191202;23;20178;-82
2022/06/28 00:27:25;;;;;;;7.53;2.20;;;;;;;;;;6190955;23;20178;-83
2022/06/28 00:29:53;;;;;;;4.57;1.60;;;;;;;;;;6191075;23;20177;-83
2022/06/28 00:32:21;;;;;;;3.63;1.83;;;;;;;;;;6217385;23;20194;-83
2022/06/28 00:34:51;;;;;;;1.70;1.27;;;;;;;;;;6190592;23;20181;-83
2022/06/28 00:37:25;;;;;;;4.33;1.20;;;;;;;;;;6190552;23;20268;-83
2022/06/28 00:39:54;;;;;;;12.50;1.37;;;;;;;;;;6189408;23;20181;-83
2022/06/28 00:42:23;;;;;;;2.73;1.77;;;;;;;;;;6190209;23;20205;-82
2022/06/28 00:44:51;;;;;;;9.07;2.23;;;;;;;;;;6190879;23;20219;-83
2022/06/28 00:47:20;;;;;;;3.80;1.80;;;;;;;;;;6190378;23;20177;-83
2022/06/28 00:49:48;;;;;;;5.07;1.70;;;;;;;;;;6190442;23;20181;-83
2022/06/28 00:52:18;;;;;;;4.47;1.67;;;;;;;;;;6189992;23;20179;-83
2022/06/28 00:54:46;;;;;;;4.73;1.70;;;;;;;;;;6190376;23;20178;-83
2022/06/28 00:57:14;;;;;;;5.63;2.00;;;;;;;;;;6216949;23;20178;-83
2022/06/28 00:59:43;;;;;;;3.13;1.67;;;;;;;;;;6216601;23;20184;-83
2022/06/28 01:02:12;;;;;;;3.03;2.50;;;;;;;;;;6190290;23;20209;-83
2022/06/28 01:04:40;;;;;;;4.90;1.97;;;;;;;;;;6190313;23;20206;-83
2022/06/28 01:07:09;;;;;;;1.70;1.20;;;;;;;;;;6190764;23;20178;-83
2022/06/28 01:09:39;;;;;;;4.03;0.97;;;;;;;;;;6190056;23;20178;-83
2022/06/28 01:12:07;;;;;;;5.47;1.93;;;;;;;;;;6190322;23;20209;-83
2022/06/28 01:14:36;;;;;;;3.97;1.97;;;;;;;;;;6216391;23;20194;-83
2022/06/28 01:17:04;;;;;;;4.20;1.63;;;;;;;;;;6216785;23;20175;-83
2022/06/28 01:19:33;;;;;;;4.83;1.33;;;;;;;;;;6190268;23;20182;-83
2022/06/28 01:22:03;;;;;;;3.87;1.10;;;;;;;;;;6190213;23;20258;-83
2022/06/28 01:24:33;;;;;;;2.50;1.13;;;;;;;;;;6190126;23;20261;-83
2022/06/28 01:27:01;;;;;;;3.47;1.77;;;;;;;;;;6189925;23;20175;-82
2022/06/28 01:29:30;;;;;;;5.23;1.90;;;;;;;;;;6190165;23;20189;-83
2022/06/28 01:31:58;;;;;;;3.33;1.80;;;;;;;;;;6216772;23;20181;-82
2022/06/28 01:34:27;;;;;;;0.50;0.50;;;;;;;;;;6189971;23;20288;-83
2022/06/28 01:36:55;;;;;;;7.10;2.73;;;;;;;;;;6190133;23;20204;-82
2022/06/28 01:39:24;;;;;;;5.07;1.50;;;;;;;;;;6190390;23;20178;-83
2022/06/28 01:41:53;;;;;;;7.13;1.77;;;;;;;;;;6216773;23;20178;-83
2022/06/28 01:44:22;;;;;;;7.03;2.10;;;;;;;;;;6189768;23;20181;-83
2022/06/28 01:46:50;;;;;;;6.37;2.20;;;;;;;;;;6189609;23;20182;-83
2022/06/28 01:49:19;;;;;;;5.03;2.30;;;;;;;;;;6216465;23;20245;-83
2022/06/28 01:51:47;;;;;;;4.20;1.63;;;;;;;;;;6216089;23;20178;-83
2022/06/28 01:54:16;;;;;;;4.13;2.00;;;;;;;;;;6189807;23;20195;-83
2022/06/28 01:56:45;;;;;;;8.10;2.57;;;;;;;;;;6189811;23;20189;-84
2022/06/28 01:59:15;;;;;;;5.93;1.50;;;;;;;;;;6216702;23;20249;-83
2022/06/28 02:01:43;;;;;;;6.40;1.63;;;;;;;;;;6189791;23;20209;-83
2022/06/28 02:04:19;;;;;;;2.73;1.37;;;;;;;;;;6189826;23;20193;-83
2022/06/28 02:06:47;;;;;;;1.33;1.07;;;;;;;;;;6189754;23;20181;-83
2022/06/28 02:09:15;;;;;;;4.47;1.63;;;;;;;;;;6216238;23;20172;-83
2022/06/28 02:11:44;;;;;;;6.10;2.23;;;;;;;;;;6190188;23;20177;-83
2022/06/28 02:14:12;;;;;;;5.63;1.93;;;;;;;;;;6189563;23;20194;-83
2022/06/28 02:16:42;;;;;;;9.37;2.87;;;;;;;;;;6189647;23;20173;-83
2022/06/28 02:19:11;;;;;;;5.50;2.17;;;;;;;;;;6189608;23;20188;-83
2022/06/28 02:21:40;;;;;;;0.70;0.70;;;;;;;;;;6189943;23;20182;-83
2022/06/28 02:24:12;;;;;;;1.27;1.27;;;;;;;;;;6189789;23;20264;-83
2022/06/28 02:26:40;;;;;;;3.63;1.87;;;;;;;;;;6189993;23;20181;-83
2022/06/28 02:29:12;;;;;;;1.60;1.50;;;;;;;;;;6189471;23;20174;-83
2022/06/28 02:31:40;;;;;;;7.03;2.00;;;;;;;;;;6189701;23;20177;-83
2022/06/28 02:40:21;;;;;;;7.07;2.60;;;;;;;;;;6189499;23;20201;-83
2022/06/28 02:42:30;;;;;;;2.53;0.60;;;;;;;;;;6215813;23;20183;-83
2022/06/28 02:44:59;;;;;;;3.50;1.87;;;;;;;;;;6189364;23;20185;-83
2022/06/28 02:47:27;;;;;;;0.40;0.40;;;;;;;;;;6215955;23;20180;-83
2022/06/28 02:49:57;;;;;;;0.40;0.40;;;;;;;;;;6189701;23;20188;-83
2022/06/28 02:52:26;;;;;;;2.30;0.90;;;;;;;;;;6189553;23;20259;-83
2022/06/28 02:54:54;;;;;;;0.40;0.40;;;;;;;;;;6189639;23;20242;-83
2022/06/28 02:57:22;;;;;;;0.40;0.40;;;;;;;;;;6215816;23;20166;-83
2022/06/28 02:59:58;;;;;;;0.80;0.80;;;;;;;;;;6189238;23;20292;-83
2022/06/28 03:02:26;;;;;;;0.40;0.40;;;;;;;;;;6215492;23;20202;-83
2022/06/28 03:04:55;;;;;;;1.30;0.73;;;;;;;;;;6188807;23;20248;-83
2022/06/28 03:07:25;;;;;;;0.83;0.83;;;;;;;;;;6189582;23;20178;-83
2022/06/28 03:09:53;;;;;;;1.90;0.53;;;;;;;;;;6189463;23;20185;-84
2022/06/28 03:12:21;;;;;;;2.33;1.57;;;;;;;;;;6189226;23;20261;-83
2022/06/28 03:14:50;;;;;;;3.67;1.37;;;;;;;;;;6215556;23;20224;-83
2022/06/28 03:17:18;;;;;;;1.13;0.50;;;;;;;;;;6189091;23;20181;-83
2022/06/28 03:19:47;;;;;;;4.17;1.43;;;;;;;;;;6189550;23;20181;-83
2022/06/28 03:22:16;;;;;;;0.40;0.40;;;;;;;;;;6189010;23;20232;-84
2022/06/28 03:24:46;;;;;;;1.33;0.60;;;;;;;;;;6215753;23;20170;-83
2022/06/28 03:27:15;;;;;;;9.47;1.83;;;;;;;;;;6189236;23;20175;-84
2022/06/28 03:29:43;;;;;;;4.53;1.83;;;;;;;;;;6189367;23;20243;-84
2022/06/28 03:32:12;;;;;;;2.47;1.90;;;;;;;;;;6189268;23;20181;-83
2022/06/28 03:34:40;;;;;;;4.43;2.10;;;;;;;;;;6189193;23;20201;-83
2022/06/28 03:37:10;;;;;;;3.73;2.07;;;;;;;;;;6215691;23;20182;-83
2022/06/28 03:39:40;;;;;;;7.57;2.73;;;;;;;;;;6189382;23;20186;-83
2022/06/28 03:42:10;;;;;;;11.43;1.97;;;;;;;;;;6189451;23;20402;-81
2022/06/28 03:44:38;;;;;;;6.33;1.43;;;;;;;;;;6215215;23;20170;-84
2022/06/28 03:47:07;;;;;;;3.47;2.03;;;;;;;;;;6215716;23;20201;-84
2022/06/28 03:49:35;;;;;;;5.63;0.97;;;;;;;;;;6189139;23;20172;-84
2022/06/28 03:52:06;;;;;;;3.37;1.63;;;;;;;;;;6215316;23;20252;-84
2022/06/28 03:54:35;;;;;;;4.13;1.07;;;;;;;;;;6215571;23;20199;-84
2022/06/28 03:57:04;;;;;;;0.40;0.40;;;;;;;;;;6189542;23;20181;-84
2022/06/28 03:59:35;;;;;;;2.50;2.40;;;;;;;;;;6215517;23;20182;-84
2022/06/28 04:02:04;;;;;;;0.40;0.40;;;;;;;;;;6189103;23;20233;-84
2022/06/28 04:04:33;;;;;;;0.80;0.80;;;;;;;;;;6189149;23;20193;-84
2022/06/28 04:07:01;;;;;;;0.50;0.50;;;;;;;;;;6189482;23;20182;-84
2022/06/28 04:09:33;;;;;;;1.50;0.83;;;;;;;;;;6215321;23;20173;-84
2022/06/28 04:12:02;;;;;;;2.20;1.57;;;;;;;;;;6189178;23;20185;-83
2022/06/28 04:14:30;;;;;;;0.67;0.63;;;;;;;;;;6215572;23;20187;-84
2022/06/28 04:17:00;;;;;;;5.20;1.33;;;;;;;;;;6191071;23;20178;-84
2022/06/28 04:19:28;;;;;;;2.50;1.93;;;;;;;;;;6190893;23;20174;-84
2022/06/28 04:21:57;;;;;;;6.93;2.67;;;;;;;;;;6191498;23;20238;-83
2022/06/28 04:24:25;;;;;;;8.77;2.80;;;;;;;;;;6190978;23;20178;-83
2022/06/28 04:26:53;;;;;;;2.33;2.20;;;;;;;;;;6217332;23;20177;-84
2022/06/28 04:29:22;;;;;;;1.13;1.10;;;;;;;;;;6190739;23;20178;-83
2022/06/28 04:31:50;;;;;;;1.03;1.03;;;;;;;;;;6190897;23;20177;-83
2022/06/28 04:34:20;;;;;;;0.40;0.40;;;;;;;;;;6190327;23;20265;-83
2022/06/28 04:36:49;;;;;;;0.40;0.40;;;;;;;;;;6190942;23;20180;-83
2022/06/28 04:39:17;;;;;;;0.40;0.40;;;;;;;;;;6216859;23;20184;-83
2022/06/28 04:41:46;;;;;;;0.40;0.40;;;;;;;;;;6190416;23;20277;-83
2022/06/28 04:44:14;;;;;;;0.47;0.47;;;;;;;;;;6216730;23;20175;-83
2022/06/28 04:46:43;;;;;;;7.70;2.43;;;;;;;;;;6216702;23;20255;-83
2022/06/28 04:49:11;;;;;;;0.50;0.50;;;;;;;;;;6190561;23;20189;-83
2022/06/28 04:51:41;;;;;;;9.17;2.23;;;;;;;;;;6215669;23;20177;-83
2022/06/28 04:54:09;;;;;;;2.87;1.77;;;;;;;;;;6190850;23;20175;-83
2022/06/28 04:56:38;;;;;;;4.23;2.10;;;;;;;;;;6216872;23;20169;-83
2022/06/28 04:59:06;;;;;;;8.60;2.40;;;;;;;;;;6216889;23;20198;-82
2022/06/28 05:01:35;;;;;;;2.10;1.03;;;;;;;;;;6190068;23;20306;-82
2022/06/28 05:04:03;;;;;;;0.60;0.60;;;;;;;;;;6216872;23;20190;-81
2022/06/28 05:06:32;;;;;;;5.20;1.63;;;;;;;;;;6216755;23;20171;-82
2022/06/28 05:09:02;;;;;;;5.00;1.07;;;;;;;;;;6190495;23;20179;-82
2022/06/28 05:11:50;;;;;;;5.10;1.53;;;;;;;;;;6216971;23;20198;-83
2022/06/28 05:14:19;;;;;;;4.10;2.33;;;;;;;;;;6190396;23;20178;-83
2022/06/28 05:16:47;;;;;;;6.17;2.77;;;;;;;;;;6190493;23;20208;-82
2022/06/28 05:19:16;;;;;;;0.57;0.57;;;;;;;;;;6190607;23;20178;-81
2022/06/28 05:21:44;;;;;;;0.40;0.40;;;;;;;;;;6190260;23;20174;-82
2022/06/28 05:24:14;;;;;;;8.43;2.80;;;;;;;;;;6190466;23;20178;-82
2022/06/28 05:26:43;;;;;;;2.17;1.20;;;;;;;;;;6189887;23;20175;-83
2022/06/28 05:29:11;;;;;;;8.50;2.83;;;;;;;;;;6190015;23;20426;-83
2022/06/28 05:31:42;;;;;;;4.23;1.90;;;;;;;;;;6216450;23;20175;-82
2022/06/28 05:34:10;;;;;;;3.47;1.93;;;;;;;;;;6190715;23;20178;-83
2022/06/28 05:36:41;;;;;;;3.00;1.00;;;;;;;;;;6216824;23;20198;-83
2022/06/28 05:39:10;;;;;;;0.50;0.50;;;;;;;;;;6190707;23;20177;-83
2022/06/28 05:41:41;;;;;;;7.77;2.63;;;;;;;;;;6216562;23;20176;-83
2022/06/28 05:44:10;;;;;;;7.87;2.50;;;;;;;;;;6190206;23;20175;-84
2022/06/28 05:46:39;;;;;;;5.10;1.80;;;;;;;;;;6216777;23;20175;-84
2022/06/28 05:49:08;;;;;;;5.03;1.70;;;;;;;;;;6216884;23;20209;-84
2022/06/28 05:51:36;;;;;;;1.93;1.43;;;;;;;;;;6190506;23;20182;-84
2022/06/28 05:54:05;;;;;;;6.63;2.03;;;;;;;;;;6218025;23;20174;-84
2022/06/28 05:56:35;;;;;;;5.27;2.70;;;;;;;;;;6217157;23;20221;-84
2022/06/28 05:59:05;;;;;;;5.40;2.23;;;;;;;;;;6190801;23;20269;-84
2022/06/28 06:01:33;;;;;;;9.73;2.97;;;;;;;;;;6190767;23;20171;-84
2022/06/28 06:04:02;;;;;;;8.60;2.50;;;;;;;;;;6190588;23;20198;-85
2022/06/28 06:06:31;;;;;;;0.40;0.40;;;;;;;;;;6191136;23;20234;-83
2022/06/28 06:09:00;;;;;;;5.67;2.20;;;;;;;;;;6191224;23;20179;-84
2022/06/28 06:11:28;;;;;;;2.10;0.80;;;;;;;;;;6190470;23;20191;-84
2022/06/28 06:13:57;;;;;;;9.43;3.07;;;;;;;;;;6190639;23;20202;-84
2022/06/28 06:16:27;;;;;;;10.83;3.43;;;;;;;;;;6190475;23;20246;-84
2022/06/28 06:18:55;;;;;;;7.20;2.30;;;;;;;;;;6190785;23;20202;-85
2022/06/28 06:21:24;;;;;;;5.27;2.60;;;;;;;;;;6190786;23;20179;-83
2022/06/28 06:23:52;;;;;;;3.43;1.47;;;;;;;;;;6190564;23;20229;-84
2022/06/28 06:26:24;;;;;;;2.87;1.40;;;;;;;;;;6191057;23;20227;-78
2022/06/28 06:28:54;;;;;;;8.67;1.87;;;;;;;;;;6190582;23;20266;-85
2022/06/28 06:31:22;;;;;;;0.70;0.70;;;;;;;;;;6190797;23;20174;-84
2022/06/28 06:33:53;;;;;;;3.37;0.77;;;;;;;;;;6190861;23;20224;-84
2022/06/28 06:36:22;;;;;;;6.37;1.80;;;;;;;;;;6190595;23;20194;-84
2022/06/28 06:38:51;;;;;;;6.80;6.40;;;;;;;;;;6190256;23;20202;-84
2022/06/28 06:41:19;;;;;;;0.87;0.83;;;;;;;;;;6190194;23;20185;-84
2022/06/28 06:43:48;;;;;;;2.43;1.13;;;;;;;;;;6190023;23;20175;-84
2022/06/28 06:46:17;;;;;;;0.77;0.57;;;;;;;;;;6189916;23;20170;-84
2022/06/28 06:48:52;;;;;;;6.90;2.20;;;;;;;;;;6190196;23;20179;-84
2022/06/28 06:51:21;;;;;;;3.33;1.27;;;;;;;;;;6190138;23;20177;-84
2022/06/28 06:54:01;;;;;;;4.60;2.50;;;;;;;;;;6190014;23;20187;-84
2022/06/28 06:56:30;;;;;;;6.63;2.13;;;;;;;;;;6190097;23;20241;-85
2022/06/28 06:59:07;;;;;;;3.80;1.07;;;;;;;;;;6189711;23;20183;-84
2022/06/28 07:01:41;;;;;;;6.57;2.67;;;;;;;;;;6188554;23;20212;-85
2022/06/28 07:04:30;;;;;;;5.40;2.17;;;;;;;;;;6189363;23;20207;-84
2022/06/28 07:07:01;;;;;;;2.37;1.90;;;;;;;;;;6189254;23;20182;-83
2022/06/28 07:09:34;;;;;;;1.93;0.80;;;;;;;;;;6189907;23;20278;-83
2022/06/28 07:16:02;;;;;;;0.60;0.60;;;;;;;;;;6144471;23;20221;-84
2022/06/28 07:47:34;;;;;;;5.73;1.73;;;;;;;;;;5741303;24;20185;-85
2022/06/28 08:01:04;;;;;;;2.10;0.60;;;;;;;;;;5983879;23;20227;-85
2022/06/28 08:04:07;;;;;;;4.73;1.90;;;;;;;;;;5886957;24;20225;-82
2022/06/28 08:07:39;;;;;;;;;;;;;;;;;;;;;
2022/06/28 09:33:03;;;;;;;2.13;0.90;;;;;;;;;;6241055;22;20207;-84
2022/06/28 10:29:05;;;;;;;5.00;2.30;;;;;;;;;;5801070;24;20179;-83
2022/06/28 10:36:11;;;;;;;1.40;1.30;;;;;;;;;;5868158;24;20285;-84
2022/06/28 10:39:15;;;;;;;;;;;;;;;;;;;;;
2022/06/28 10:42:25;;;;;;;;;;;;;;;;;;;;;
2022/06/28 10:53:28;;;;;;;0.97;0.87;;;;;;;;;;5938179;24;20184;-85
2022/06/28 15:32:28;;;;;;;1.60;0.87;;;;;;;;;;6249770;22;20178;-86
2022/06/28 15:35:12;;;;;;;1.83;1.07;;;;;;;;;;6247315;22;20291;-87
2022/06/28 15:37:43;;;;;;;0.90;0.80;;;;;;;;;;6249765;22;20261;-86
2022/06/28 15:40:12;;;;;;;1.20;1.10;;;;;;;;;;6245711;22;20439;-87
2022/06/28 15:42:44;;;;;;;1.50;1.03;;;;;;;;;;6249140;22;20175;-84
2022/06/28 15:45:12;;;;;;;2.53;1.30;;;;;;;;;;6248631;22;20177;-84
2022/06/28 15:47:41;;;;;;;2.90;0.70;;;;;;;;;;6247279;22;20169;-84
2022/06/28 15:50:10;;;;;;;29.17;2.30;;;;;;;;;;6248466;22;20175;-84
2022/06/28 15:52:41;;;;;;;1.40;0.70;;;;;;;;;;6249319;22;20261;-84
2022/06/28 15:55:10;;;;;;;1.03;0.97;;;;;;;;;;6249919;22;20179;-84
2022/06/28 15:57:40;;;;;;;1.60;1.17;;;;;;;;;;6249586;22;20277;-84
2022/06/28 16:00:11;;;;;;;1.23;1.13;;;;;;;;;;6276899;22;20177;-84
2022/06/28 16:02:39;;;;;;;2.13;0.87;;;;;;;;;;6276617;22;20186;-84
2022/06/28 16:05:10;;;;;;;0.53;0.53;;;;;;;;;;6249918;22;20255;-84
2022/06/28 16:07:38;;;;;;;0.30;0.30;;;;;;;;;;6249199;22;20216;-83
2022/06/28 16:10:07;;;;;;;0.30;0.30;;;;;;;;;;6276288;22;20178;-84
2022/06/28 16:12:56;;;;;;;0.73;0.47;;;;;;;;;;6252050;22;20258;-84
2022/06/28 16:15:27;;;;;;;0.87;0.87;;;;;;;;;;6251859;22;20257;-84
2022/06/28 16:17:56;;;;;;;0.30;0.30;;;;;;;;;;6251987;22;20190;-83
2022/06/28 16:20:26;;;;;;;0.40;0.40;;;;;;;;;;6252070;22;20182;-83
2022/06/28 16:22:59;;;;;;;0.23;0.23;;;;;;;;;;6251899;22;20179;-82
2022/06/28 16:25:28;;;;;;;0.70;0.70;;;;;;;;;;6251765;22;20175;-83
2022/06/28 16:27:57;;;;;;;0.83;0.60;;;;;;;;;;6251784;22;20232;-83
2022/06/28 16:30:26;;;;;;;1.23;1.07;;;;;;;;;;6251511;22;20185;-83
2022/06/28 16:32:55;;;;;;;0.57;0.57;;;;;;;;;;6278436;22;20186;-83
2022/06/28 16:35:24;;;;;;;1.90;0.40;;;;;;;;;;6277160;22;20170;-83
2022/06/28 16:37:52;;;;;;;0.43;0.43;;;;;;;;;;6278121;22;20187;-83
2022/06/28 16:40:22;;;;;;;0.60;0.60;;;;;;;;;;6251873;22;20170;-85
2022/06/28 16:42:50;;;;;;;0.40;0.40;;;;;;;;;;6251368;22;20176;-83
2022/06/28 16:45:19;;;;;;;2.50;1.10;;;;;;;;;;6251424;22;20177;-84
2022/06/28 16:47:49;;;;;;;0.43;0.43;;;;;;;;;;6251440;22;20176;-84
2022/06/28 16:50:20;;;;;;;1.43;0.47;;;;;;;;;;6278117;22;20165;-84
2022/06/28 16:52:55;;;;;;;0.40;0.30;;;;;;;;;;6251371;22;20176;-84
2022/06/28 16:55:24;;;;;;;0.23;0.23;;;;;;;;;;6251626;22;20169;-84
2022/06/28 16:57:52;;;;;;;0.87;0.87;;;;;;;;;;6251533;22;20215;-82
2022/06/28 17:00:21;;;;;;;0.40;0.40;;;;;;;;;;6251366;22;20180;-83
2022/06/28 17:02:51;;;;;;;9.43;0.90;;;;;;;;;;6251590;22;20181;-83
2022/06/28 17:05:20;;;;;;;0.40;0.40;;;;;;;;;;6251272;22;20177;-83
2022/06/28 17:07:48;;;;;;;0.30;0.30;;;;;;;;;;6278071;22;20161;-83
2022/06/28 17:10:16;;;;;;;2.40;0.60;;;;;;;;;;6251133;22;20177;-83
2022/06/28 17:12:46;;;;;;;0.47;0.47;;;;;;;;;;6251055;22;20239;-82
2022/06/28 17:15:14;;;;;;;0.60;0.45;;;;;;;;;;6251286;22;20173;-83
2022/06/28 17:17:43;;;;;;;2.00;0.70;;;;;;;;;;6251030;22;20218;-83
2022/06/28 17:20:13;;;;;;;4.38;3.50;;;;;;;;;;6251234;22;20227;-83
2022/06/28 17:22:42;;;;;;;0.80;0.30;;;;;;;;;;6277359;22;20169;-83
2022/06/28 17:25:11;;;;;;;0.40;0.40;;;;;;;;;;6250862;22;20179;-82
2022/06/28 17:27:39;;;;;;;1.27;0.47;;;;;;;;;;6250660;22;20204;-83
2022/06/28 17:30:09;;;;;;;0.98;0.60;;;;;;;;;;6277889;22;20244;-82
2022/06/28 17:32:37;;;;;;;0.63;0.63;;;;;;;;;;6250852;22;20181;-82
2022/06/28 17:35:07;;;;;;;0.73;0.65;;;;;;;;;;6251206;22;20226;-82
2022/06/28 17:37:37;;;;;;;1.38;0.55;;;;;;;;;;6250884;22;20177;-83
2022/06/28 17:40:06;;;;;;;0.50;0.50;;;;;;;;;;6250993;22;20185;-83
2022/06/28 17:42:34;;;;;;;2.75;0.77;;;;;;;;;;6250432;22;20230;-83
2022/06/28 17:45:02;;;;;;;2.80;0.77;;;;;;;;;;6250757;22;20168;-83
2022/06/28 17:47:31;;;;;;;2.88;0.70;;;;;;;;;;6250929;22;20173;-83
2022/06/28 17:50:04;;;;;;;0.60;0.60;;;;;;;;;;6277236;22;20229;-82
2022/06/28 17:52:33;;;;;;;1.23;0.90;;;;;;;;;;6250560;22;20255;-82
2022/06/28 17:55:03;;;;;;;1.25;1.08;;;;;;;;;;6277528;22;20169;-83
2022/06/28 17:57:33;;;;;;;1.75;1.20;;;;;;;;;;6250185;22;20183;-83
2022/06/28 18:00:02;;;;;;;3.00;1.43;;;;;;;;;;6249888;22;20201;-82
2022/06/28 18:02:30;;;;;;;2.00;1.20;;;;;;;;;;6250354;22;20180;-82
2022/06/28 18:04:59;;;;;;;2.27;1.10;;;;;;;;;;6250225;22;20204;-83
2022/06/28 18:07:27;;;;;;;3.03;1.20;;;;;;;;;;6250326;22;20180;-83
2022/06/28 18:09:56;;;;;;;2.00;0.90;;;;;;;;;;6277049;22;20176;-82
2022/06/28 18:12:28;;;;;;;0.93;0.93;;;;;;;;;;6250032;22;20173;-83
2022/06/28 18:14:57;;;;;;;7.77;2.43;;;;;;;;;;6250155;22;20180;-83
2022/06/28 18:17:27;;;;;;;2.50;1.57;;;;;;;;;;6277321;22;20180;-83
2022/06/28 18:19:56;;;;;;;4.63;2.03;;;;;;;;;;6250439;22;20197;-83
2022/06/28 18:22:25;;;;;;;4.43;1.80;;;;;;;;;;6277388;22;20169;-83
2022/06/28 18:24:54;;;;;;;4.53;1.63;;;;;;;;;;6276996;22;20232;-83
2022/06/28 18:27:22;;;;;;;3.23;1.63;;;;;;;;;;6276929;22;20209;-83
2022/06/28 18:29:52;;;;;;;4.00;1.23;;;;;;;;;;6250225;22;20173;-83
2022/06/28 18:32:20;;;;;;;3.10;1.10;;;;;;;;;;6250078;22;20184;-83
2022/06/28 18:34:49;;;;;;;4.93;1.20;;;;;;;;;;6249109;22;20177;-82
2022/06/28 18:37:17;;;;;;;3.10;1.43;;;;;;;;;;6249670;22;20211;-82
2022/06/28 18:39:45;;;;;;;2.27;1.00;;;;;;;;;;6276161;22;20199;-82
2022/06/28 18:42:14;;;;;;;1.17;0.93;;;;;;;;;;6276696;22;20196;-83
2022/06/28 18:44:44;;;;;;;2.90;1.37;;;;;;;;;;6250081;22;20202;-82
2022/06/28 18:47:14;;;;;;;3.13;1.93;;;;;;;;;;6250155;22;20169;-82
2022/06/28 18:49:43;;;;;;;2.10;1.53;;;;;;;;;;6250122;22;20256;-82
2022/06/28 18:52:11;;;;;;;2.07;1.83;;;;;;;;;;6250503;22;20186;-82
2022/06/28 18:54:40;;;;;;;0.83;0.80;;;;;;;;;;6249568;22;20181;-82
2022/06/28 18:57:09;;;;;;;3.03;1.07;;;;;;;;;;6250164;22;20184;-82
2022/06/28 18:59:39;;;;;;;2.67;1.03;;;;;;;;;;6249703;22;20205;-82
2022/06/28 19:02:08;;;;;;;0.30;0.30;;;;;;;;;;6276644;22;20199;-82
2022/06/28 19:04:37;;;;;;;4.33;0.87;;;;;;;;;;6249998;22;20207;-82
2022/06/28 19:07:07;;;;;;;2.67;1.70;;;;;;;;;;6277137;22;20201;-82
2022/06/28 19:09:35;;;;;;;1.63;1.53;;;;;;;;;;6249753;22;20183;-82
2022/06/28 19:12:05;;;;;;;4.30;1.43;;;;;;;;;;6249995;22;20187;-82
2022/06/28 19:14:34;;;;;;;5.67;1.90;;;;;;;;;;6249783;22;20181;-82
2022/06/28 19:17:02;;;;;;;3.83;2.17;;;;;;;;;;6249649;22;20278;-82
2022/06/28 19:19:31;;;;;;;1.07;0.83;;;;;;;;;;6249346;22;20221;-83
2022/06/28 19:22:01;;;;;;;4.10;1.77;;;;;;;;;;6249850;22;20177;-83
2022/06/28 19:24:30;;;;;;;7.00;2.10;;;;;;;;;;6249965;22;20180;-82
2022/06/28 19:26:59;;;;;;;0.83;0.83;;;;;;;;;;6249748;22;20237;-83
2022/06/28 19:29:28;;;;;;;2.43;1.20;;;;;;;;;;6276769;22;20163;-82
2022/06/28 19:31:56;;;;;;;9.03;3.10;;;;;;;;;;6276800;22;20179;-83
2022/06/28 19:34:25;;;;;;;0.70;0.70;;;;;;;;;;6249964;22;20185;-82
2022/06/28 19:36:53;;;;;;;4.33;0.93;;;;;;;;;;6276741;22;20176;-82
2022/06/28 19:39:23;;;;;;;0.40;0.40;;;;;;;;;;6249943;22;20256;-82
2022/06/28 19:41:54;;;;;;;1.20;0.87;;;;;;;;;;6249645;22;20180;-82
2022/06/28 19:44:23;;;;;;;1.83;0.80;;;;;;;;;;6249709;22;20177;-82
2022/06/28 19:46:54;;;;;;;1.30;0.90;;;;;;;;;;6250833;22;20232;-82
2022/06/28 19:49:22;;;;;;;10.90;2.83;;;;;;;;;;6251508;22;20230;-81
2022/06/28 19:51:51;;;;;;;2.93;0.60;;;;;;;;;;6278452;22;20252;-82
2022/06/28 19:54:21;;;;;;;1.30;1.03;;;;;;;;;;6252003;22;20171;-83
2022/06/28 19:56:50;;;;;;;1.13;1.13;;;;;;;;;;6278755;22;20172;-82
2022/06/28 19:59:19;;;;;;;0.70;0.70;;;;;;;;;;6251347;22;20192;-82
2022/06/28 20:01:53;;;;;;;0.57;0.57;;;;;;;;;;6251689;22;20203;-82
2022/06/28 20:04:21;;;;;;;2.57;1.03;;;;;;;;;;6251379;22;20289;-82
2022/06/28 20:06:50;;;;;;;0.73;0.73;;;;;;;;;;6251827;22;20180;-81
2022/06/28 20:09:18;;;;;;;0.87;0.87;;;;;;;;;;6251679;22;20180;-82
2022/06/28 20:11:47;;;;;;;0.37;0.37;;;;;;;;;;6278713;22;20180;-82
2022/06/28 20:14:16;;;;;;;2.17;0.97;;;;;;;;;;6278365;22;20177;-83
2022/06/28 20:16:45;;;;;;;0.70;0.70;;;;;;;;;;6251360;22;20199;-82
2022/06/28 20:19:13;;;;;;;2.93;0.83;;;;;;;;;;6251828;22;20191;-82
2022/06/28 20:21:42;;;;;;;0.40;0.40;;;;;;;;;;6251776;22;20174;-83
2022/06/28 20:24:10;;;;;;;0.40;0.40;;;;;;;;;;6278759;22;20186;-82
2022/06/28 20:26:39;;;;;;;7.53;1.60;;;;;;;;;;6278526;22;20285;-82
2022/06/28 20:29:07;;;;;;;3.43;1.07;;;;;;;;;;6251579;22;20179;-82
2022/06/28 20:31:37;;;;;;;0.57;0.57;;;;;;;;;;6251340;22;20184;-82
2022/06/28 20:34:05;;;;;;;0.40;0.40;;;;;;;;;;6251599;22;20203;-82
2022/06/28 20:36:34;;;;;;;0.50;0.50;;;;;;;;;;6251038;22;20183;-82
2022/06/28 20:39:02;;;;;;;3.70;1.33;;;;;;;;;;6251588;22;20180;-82
2022/06/28 20:44:31;;;;;;;0.33;0.33;;;;;;;;;;6159587;23;20221;-84
2022/06/28 20:47:01;;;;;;;0.90;0.90;;;;;;;;;;6258225;22;20196;-81
2022/06/28 20:49:29;;;;;;;1.13;1.03;;;;;;;;;;6278278;22;20170;-81
2022/06/28 20:51:58;;;;;;;0.73;0.63;;;;;;;;;;6250668;22;20173;-83
2022/06/28 20:54:27;;;;;;;0.27;0.27;;;;;;;;;;6278267;22;20172;-83
2022/06/28 20:56:55;;;;;;;0.53;0.53;;;;;;;;;;6277485;22;20173;-83
2022/06/28 20:59:24;;;;;;;2.00;1.07;;;;;;;;;;6251217;22;20268;-83
2022/06/28 21:01:52;;;;;;;1.33;1.30;;;;;;;;;;6250759;22;20176;-83
2022/06/28 21:04:22;;;;;;;0.77;0.77;;;;;;;;;;6250743;22;20254;-83
2022/06/28 21:06:51;;;;;;;1.10;1.07;;;;;;;;;;6250879;22;20230;-83
2022/06/28 21:09:19;;;;;;;0.87;0.87;;;;;;;;;;6251321;22;20180;-81
2022/06/28 21:11:48;;;;;;;0.60;0.60;;;;;;;;;;6277501;22;20184;-81
2022/06/28 21:14:16;;;;;;;2.37;0.47;;;;;;;;;;6250944;22;20173;-81
2022/06/28 21:16:44;;;;;;;0.87;0.87;;;;;;;;;;6277911;22;20173;-81
2022/06/28 21:19:13;;;;;;;0.77;0.77;;;;;;;;;;6251080;22;20173;-81
2022/06/28 21:21:43;;;;;;;0.30;0.30;;;;;;;;;;6277802;22;20196;-81
2022/06/28 21:24:11;;;;;;;0.50;0.50;;;;;;;;;;6250634;22;20171;-82
2022/06/28 21:26:39;;;;;;;2.30;1.03;;;;;;;;;;6277069;22;20195;-81
2022/06/28 21:29:08;;;;;;;0.30;0.30;;;;;;;;;;6250691;22;20200;-81
2022/06/28 21:31:37;;;;;;;0.40;0.40;;;;;;;;;;6250589;22;20193;-82
2022/06/28 21:34:06;;;;;;;0.50;0.50;;;;;;;;;;6251143;22;20181;-81
2022/06/28 21:36:35;;;;;;;0.70;0.70;;;;;;;;;;6250658;22;20180;-81
2022/06/28 21:39:05;;;;;;;0.83;0.83;;;;;;;;;;6277591;22;20179;-81
2022/06/28 21:41:35;;;;;;;1.57;1.17;;;;;;;;;;6250846;22;20211;-81
2022/06/28 21:44:03;;;;;;;0.93;0.93;;;;;;;;;;6277515;22;20200;-81
2022/06/28 21:46:31;;;;;;;0.93;0.93;;;;;;;;;;6250055;22;20177;-81
2022/06/28 21:49:00;;;;;;;0.60;0.60;;;;;;;;;;6250860;22;20288;-81
2022/06/28 21:51:46;;;;;;;1.47;1.37;;;;;;;;;;6277209;22;20175;-82
2022/06/28 21:54:17;;;;;;;0.40;0.40;;;;;;;;;;6277253;22;20185;-81
2022/06/28 21:56:52;;;;;;;0.57;0.57;;;;;;;;;;6277289;22;20221;-80
2022/06/28 21:59:20;;;;;;;1.50;1.40;;;;;;;;;;6250622;22;20178;-81
2022/06/28 22:01:48;;;;;;;1.90;1.23;;;;;;;;;;6250574;22;20201;-82
2022/06/28 22:04:17;;;;;;;3.33;1.00;;;;;;;;;;6277121;22;20199;-82
2022/06/28 22:06:45;;;;;;;0.70;0.70;;;;;;;;;;6250234;22;20177;-82
2022/06/28 22:09:17;;;;;;;1.30;1.30;;;;;;;;;;6250059;22;20173;-82
2022/06/28 22:11:45;;;;;;;0.77;0.77;;;;;;;;;;6277245;22;20245;-82
2022/06/28 22:14:14;;;;;;;2.87;1.90;;;;;;;;;;6277010;22;20167;-82
2022/06/28 22:16:43;;;;;;;0.97;0.97;;;;;;;;;;6277135;22;20184;-82
2022/06/28 22:19:14;;;;;;;2.53;2.40;;;;;;;;;;6250342;22;20202;-82
2022/06/28 22:21:42;;;;;;;0.43;0.43;;;;;;;;;;6250477;22;20286;-82
2022/06/28 22:24:10;;;;;;;2.47;1.73;;;;;;;;;;6275874;22;20175;-82
2022/06/28 22:26:40;;;;;;;0.83;0.57;;;;;;;;;;6250191;22;20202;-82
2022/06/28 22:29:09;;;;;;;0.67;0.67;;;;;;;;;;6250669;22;20180;-82
2022/06/28 22:31:37;;;;;;;4.03;2.00;;;;;;;;;;6250320;22;20165;-82
2022/06/28 22:34:06;;;;;;;1.90;1.27;;;;;;;;;;6249822;22;20170;-82
2022/06/28 22:36:34;;;;;;;0.87;0.87;;;;;;;;;;6250334;22;20187;-82
2022/06/28 22:39:03;;;;;;;2.73;1.70;;;;;;;;;;6250057;22;20179;-82
2022/06/28 22:41:32;;;;;;;3.20;1.20;;;;;;;;;;6250388;22;20200;-81
2022/06/28 22:44:02;;;;;;;1.20;0.90;;;;;;;;;;6250461;22;20181;-82
2022/06/28 22:46:31;;;;;;;1.27;1.17;;;;;;;;;;6250210;22;20246;-81
2022/06/28 22:48:59;;;;;;;5.00;1.23;;;;;;;;;;6250230;22;20241;-82
2022/06/28 22:51:27;;;;;;;0.73;0.73;;;;;;;;;;6249895;22;20174;-81
2022/06/28 22:53:56;;;;;;;1.47;1.47;;;;;;;;;;6250078;22;20235;-81
2022/06/28 22:56:24;;;;;;;1.03;1.03;;;;;;;;;;6250065;22;20177;-82
2022/06/28 22:58:53;;;;;;;0.60;0.60;;;;;;;;;;6250191;22;20175;-82
2022/06/28 23:01:23;;;;;;;1.70;1.50;;;;;;;;;;6250070;22;20202;-82
2022/06/28 23:03:51;;;;;;;0.80;0.80;;;;;;;;;;6249848;22;20203;-82